Terminal Aerodrome Forecast
Issued by NWS

Home | Current Version | Previous Version | Text Only | Print | Product List | Glossary On
Versions: 1 2 3 4 5 6 7 8 9 10 11 12 13 14 15 16 17 18 19 20 21 22
000
FTUS44 KHGX 231515 AAA
TAFCXO
TAF AMD
KCXO 231515Z 2315/2412 18010KT P6SM BKN025 BKN250
      TEMPO 2315/2316 SCT025 BKN250
     FM231600 18011KT P6SM SCT035 BKN050
     FM240000 15005KT P6SM BKN250
     FM240700 19004KT P6SM SCT015=

USA.gov is the U.S. government's official web portal to all federal, state and local government web resources and services.